createdAt,value
2017-12-08T00:00:23.230Z,19.00
2017-12-08T00:01:26.472Z,21.90
2017-12-08T00:02:29.746Z,19.05
2017-12-08T00:03:32.214Z,21.45
2017-12-08T00:04:35.095Z,19.92
2017-12-08T00:05:38.346Z,22.27
2017-12-08T00:06:40.854Z,19.23
2017-12-08T00:07:44.117Z,20.50
2017-12-08T00:08:46.583Z,23.73
2017-12-08T00:09:49.083Z,21.12
2017-12-08T00:10:51.597Z,20.55
2017-12-08T00:11:54.068Z,22.50
2017-12-08T00:12:56.659Z,27.35
2017-12-08T00:13:59.161Z,20.20
2017-12-08T00:15:01.693Z,24.35
2017-12-08T00:16:04.163Z,21.75
2017-12-08T00:17:06.674Z,21.20
2017-12-08T00:18:09.193Z,24.67
2017-12-08T00:19:11.695Z,21.42
2017-12-08T00:20:14.170Z,23.62
2017-12-08T00:21:16.654Z,20.08
2017-12-08T00:22:19.133Z,22.70
2017-12-08T00:23:21.692Z,22.13
2017-12-08T00:24:24.162Z,21.12
2017-12-08T00:25:26.646Z,23.67
2017-12-08T00:26:29.122Z,23.58
2017-12-08T00:27:31.691Z,25.37
2017-12-08T00:28:34.205Z,22.62
2017-12-08T00:29:37.474Z,22.33
2017-12-08T00:30:39.955Z,23.58
2017-12-08T00:31:42.430Z,26.50
2017-12-08T00:32:44.911Z,26.10
2017-12-08T00:33:54.231Z,29.30
2017-12-08T00:34:56.748Z,24.80
2017-12-08T00:35:59.220Z,25.20
2017-12-08T00:37:01.695Z,24.00
2017-12-08T00:38:04.632Z,28.75
2017-12-08T00:39:07.166Z,24.23
2017-12-08T00:40:09.679Z,21.27
2017-12-08T00:41:12.154Z,25.42
2017-12-08T00:42:14.738Z,27.20
2017-12-08T00:43:17.218Z,24.33
2017-12-08T00:44:19.685Z,23.50
2017-12-08T00:45:22.459Z,24.50
2017-12-08T00:46:25.126Z,26.27
2017-12-08T00:47:28.377Z,25.67
2017-12-08T00:48:31.638Z,26.60
2017-12-08T00:49:34.110Z,27.00
2017-12-08T00:50:36.639Z,26.35
2017-12-08T00:51:39.097Z,29.40
2017-12-08T00:52:41.581Z,27.25
2017-12-08T00:53:44.155Z,26.12
2017-12-08T00:54:46.626Z,28.90
2017-12-08T00:55:49.108Z,27.42
2017-12-08T00:56:51.587Z,26.55
2017-12-08T00:57:54.152Z,27.60
2017-12-08T00:58:56.621Z,25.85
2017-12-08T00:59:59.086Z,25.60
2017-12-08T01:02:11.075Z,25.83
2017-12-08T01:03:13.646Z,27.50
2017-12-08T01:04:16.110Z,26.77
2017-12-08T01:05:18.575Z,28.35
2017-12-08T01:06:22.167Z,25.98
2017-12-08T01:07:24.630Z,27.17
2017-12-08T01:08:27.138Z,26.37
2017-12-08T01:09:29.615Z,31.17
2017-12-08T01:10:32.086Z,24.80
2017-12-08T01:11:34.677Z,24.30
2017-12-08T01:12:37.155Z,25.35
2017-12-08T01:13:39.730Z,25.65
2017-12-08T01:14:42.255Z,27.37
2017-12-08T01:15:44.719Z,26.55
2017-12-08T01:16:47.190Z,27.15
2017-12-08T01:17:49.676Z,27.73
2017-12-08T01:18:52.152Z,30.33
2017-12-08T01:19:54.610Z,27.50
2017-12-08T01:20:57.095Z,24.25
2017-12-08T01:22:00.325Z,25.10
2017-12-08T01:23:03.588Z,24.08
2017-12-08T01:24:06.075Z,26.65
2017-12-08T01:25:08.538Z,22.17
2017-12-08T01:26:11.056Z,23.90
2017-12-08T01:27:13.591Z,25.30
2017-12-08T01:28:16.238Z,27.00
2017-12-08T01:29:18.714Z,27.25
2017-12-08T01:30:21.929Z,23.45
2017-12-08T01:31:25.206Z,21.70
2017-12-08T01:32:28.447Z,22.58
2017-12-08T01:33:31.702Z,20.67
2017-12-08T01:34:34.169Z,21.70
2017-12-08T01:35:36.635Z,20.45
2017-12-08T01:36:39.895Z,21.75
2017-12-08T01:37:42.368Z,22.20
2017-12-08T01:38:44.875Z,22.40
2017-12-08T01:39:47.376Z,21.42
2017-12-08T01:40:49.843Z,21.62
2017-12-08T01:41:53.072Z,21.10
2017-12-08T01:42:55.561Z,22.25
2017-12-08T01:43:58.061Z,21.23
2017-12-08T01:45:01.298Z,21.58
2017-12-08T01:46:05.262Z,21.40
2017-12-08T01:47:08.505Z,23.17
2017-12-08T01:48:11.007Z,26.85
2017-12-08T01:49:13.479Z,18.62
2017-12-08T01:50:15.988Z,20.65
2017-12-08T01:51:19.236Z,21.67
2017-12-08T01:52:22.503Z,21.77
2017-12-08T01:53:24.973Z,21.40
2017-12-08T01:54:28.211Z,19.33
2017-12-08T01:55:30.718Z,16.67
2017-12-08T01:56:33.203Z,18.67
2017-12-08T01:57:35.734Z,19.85
2017-12-08T01:58:38.266Z,19.20
2017-12-08T01:59:40.736Z,19.27
2017-12-08T02:00:43.310Z,21.25
2017-12-08T02:01:45.802Z,18.92
2017-12-08T02:02:48.306Z,19.55
2017-12-08T02:03:50.758Z,19.73
2017-12-08T02:04:53.991Z,18.08
2017-12-08T02:05:56.460Z,17.12
2017-12-08T02:06:58.952Z,18.83
2017-12-08T02:08:01.410Z,20.62
2017-12-08T02:09:03.882Z,21.98
2017-12-08T02:10:06.358Z,19.52
2017-12-08T02:11:08.841Z,23.67
2017-12-08T02:12:11.344Z,18.25
2017-12-08T02:13:13.808Z,21.00
2017-12-08T02:14:17.049Z,17.30
2017-12-08T02:15:20.358Z,18.92
2017-12-08T02:16:22.851Z,19.80
2017-12-08T02:17:25.470Z,21.10
2017-12-08T02:18:27.935Z,19.05
2017-12-08T02:19:30.410Z,20.65
2017-12-08T02:20:32.883Z,18.73
2017-12-08T02:21:35.379Z,21.37
2017-12-08T02:22:37.899Z,20.42
2017-12-08T02:23:40.395Z,17.75
2017-12-08T02:24:43.663Z,19.75
2017-12-08T02:25:46.140Z,23.73
2017-12-08T02:26:48.589Z,16.33
2017-12-08T02:27:51.882Z,17.25
2017-12-08T02:28:54.376Z,20.55
2017-12-08T02:29:56.906Z,18.77
2017-12-08T02:30:59.383Z,17.45
2017-12-08T02:32:01.866Z,18.17
2017-12-08T02:33:04.322Z,23.58
2017-12-08T02:34:06.789Z,18.55
2017-12-08T02:35:10.047Z,18.02
2017-12-08T02:36:12.547Z,21.95
2017-12-08T02:37:15.819Z,18.25
2017-12-08T02:38:18.327Z,16.58
2017-12-08T02:39:21.597Z,15.70
2017-12-08T02:40:24.088Z,18.27
2017-12-08T02:41:27.315Z,19.08
2017-12-08T02:42:29.846Z,17.05
2017-12-08T02:43:33.099Z,21.40
2017-12-08T02:44:36.322Z,18.17
2017-12-08T02:45:38.970Z,19.52
2017-12-08T02:46:42.199Z,18.02
2017-12-08T02:47:44.861Z,16.62
2017-12-08T02:48:47.333Z,16.35
2017-12-08T02:49:49.805Z,16.75
2017-12-08T02:50:52.253Z,16.87
2017-12-08T02:51:54.751Z,17.92
2017-12-08T02:52:58.157Z,20.48
2017-12-08T02:54:00.582Z,17.90
2017-12-08T02:55:04.562Z,16.98
2017-12-08T02:56:07.792Z,17.25
2017-12-08T02:57:10.265Z,16.35
2017-12-08T02:58:13.071Z,15.73
2017-12-08T02:59:16.301Z,16.62
2017-12-08T03:00:19.541Z,18.95
2017-12-08T03:01:22.022Z,16.67
2017-12-08T03:02:24.488Z,15.57
2017-12-08T03:03:26.954Z,15.82
2017-12-08T03:04:29.486Z,15.65
2017-12-08T03:05:31.972Z,13.20
2017-12-08T03:06:35.227Z,14.15
2017-12-08T03:07:38.507Z,15.80
2017-12-08T03:08:41.006Z,16.23
2017-12-08T03:09:43.469Z,16.77
2017-12-08T03:10:45.934Z,15.43
2017-12-08T03:11:49.187Z,14.50
2017-12-08T03:12:52.415Z,15.43
2017-12-08T03:13:55.678Z,14.68
2017-12-08T03:14:58.152Z,14.10
2017-12-08T03:16:00.662Z,13.70
2017-12-08T03:17:03.254Z,15.38
2017-12-08T03:18:05.727Z,14.52
2017-12-08T03:19:08.200Z,19.10
2017-12-08T03:20:11.521Z,16.25
2017-12-08T03:21:14.770Z,15.40
2017-12-08T03:22:18.035Z,16.25
2017-12-08T03:23:20.509Z,17.20
2017-12-08T03:24:22.987Z,11.85
2017-12-08T03:25:25.461Z,13.55
2017-12-08T03:26:27.923Z,14.40
2017-12-08T03:27:31.264Z,13.32
2017-12-08T03:28:34.494Z,14.68
2017-12-08T03:29:36.968Z,15.38
2017-12-08T03:30:39.441Z,16.02
2017-12-08T03:31:41.915Z,13.65
2017-12-08T03:32:44.409Z,12.65
2017-12-08T03:33:47.718Z,16.12
2017-12-08T03:34:50.197Z,13.55
2017-12-08T03:35:52.667Z,17.52
2017-12-08T03:36:55.153Z,14.07
2017-12-08T03:37:57.652Z,12.68
2017-12-08T03:39:00.917Z,14.73
2017-12-08T03:40:03.397Z,13.25
2017-12-08T03:41:05.871Z,12.13
2017-12-08T03:42:08.463Z,13.07
2017-12-08T03:43:11.703Z,13.52
2017-12-08T03:44:14.973Z,14.43
2017-12-08T03:45:17.466Z,15.13
2017-12-08T03:46:20.012Z,14.38
2017-12-08T03:47:23.258Z,13.55
2017-12-08T03:48:25.727Z,13.77
2017-12-08T03:49:28.331Z,12.90
2017-12-08T03:50:30.808Z,12.65
2017-12-08T03:51:33.359Z,14.45
2017-12-08T03:52:37.411Z,15.25
2017-12-08T03:53:40.638Z,14.02
2017-12-08T03:54:43.912Z,12.43
2017-12-08T03:55:46.418Z,16.60
2017-12-08T03:56:49.650Z,11.85
2017-12-08T03:57:52.116Z,11.93
2017-12-08T03:58:54.598Z,12.65
2017-12-08T03:59:57.083Z,10.65
2017-12-08T04:00:59.592Z,13.02
2017-12-08T04:02:02.084Z,13.10
2017-12-08T04:03:05.352Z,11.80
2017-12-08T04:04:07.824Z,13.70
2017-12-08T04:05:10.347Z,13.60
2017-12-08T04:06:12.863Z,12.48
2017-12-08T04:07:15.343Z,14.10
2017-12-08T04:08:18.554Z,13.18
2017-12-08T04:09:21.114Z,12.88
2017-12-08T04:10:23.586Z,13.52
2017-12-08T04:11:26.072Z,11.85
2017-12-08T04:12:28.562Z,11.43
2017-12-08T04:13:31.044Z,12.57
2017-12-08T04:14:33.518Z,11.27
2017-12-08T04:15:36.818Z,11.00
2017-12-08T04:16:39.294Z,11.15
2017-12-08T04:17:42.579Z,11.30
2017-12-08T04:18:45.072Z,11.20
2017-12-08T04:19:48.306Z,10.25
2017-12-08T04:20:51.574Z,12.50
2017-12-08T04:21:54.043Z,12.95
2017-12-08T04:22:56.546Z,13.38
2017-12-08T04:23:59.010Z,12.15
2017-12-08T04:25:02.245Z,12.43
2017-12-08T04:26:04.705Z,12.30
2017-12-08T04:27:07.219Z,11.30
2017-12-08T04:28:10.519Z,11.63
2017-12-08T04:29:12.975Z,11.45
2017-12-08T04:30:16.201Z,9.98
2017-12-08T04:31:18.667Z,9.85
2017-12-08T04:32:21.137Z,14.68
2017-12-08T04:33:23.620Z,10.05
2017-12-08T04:34:26.115Z,11.88
2017-12-08T04:35:29.349Z,12.13
2017-12-08T04:36:31.921Z,12.77
2017-12-08T04:37:34.425Z,15.60
2017-12-08T04:38:36.964Z,10.15
2017-12-08T04:39:39.452Z,10.75
2017-12-08T04:40:41.954Z,11.45
2017-12-08T04:41:44.428Z,13.27
2017-12-08T04:42:47.665Z,9.77
2017-12-08T04:43:50.943Z,10.40
2017-12-08T04:44:53.414Z,10.27
2017-12-08T04:45:55.902Z,11.70
2017-12-08T04:46:58.399Z,10.57
2017-12-08T04:48:00.924Z,17.05
2017-12-08T04:49:03.386Z,8.85
2017-12-08T04:50:05.851Z,12.43
2017-12-08T04:51:09.166Z,10.43
2017-12-08T04:52:11.615Z,9.55
2017-12-08T04:53:14.851Z,10.50
2017-12-08T04:54:18.104Z,9.63
2017-12-08T04:55:21.334Z,13.38
2017-12-08T04:56:23.848Z,11.12
2017-12-08T04:57:26.598Z,8.10
2017-12-08T04:58:29.880Z,10.15
2017-12-08T04:59:32.341Z,8.23
2017-12-08T05:00:34.806Z,12.37
2017-12-08T05:01:37.295Z,9.90
2017-12-08T05:02:39.774Z,8.75
2017-12-08T05:03:42.258Z,10.82
2017-12-08T05:04:44.718Z,9.88
2017-12-08T05:05:47.204Z,10.32
2017-12-08T05:06:49.700Z,10.52
2017-12-08T05:07:52.187Z,12.65
2017-12-08T05:08:55.432Z,8.07
2017-12-08T05:09:57.898Z,9.15
2017-12-08T05:11:00.364Z,9.27
2017-12-08T05:12:03.665Z,9.45
2017-12-08T05:13:06.126Z,8.15
2017-12-08T05:14:08.589Z,12.43
2017-12-08T05:15:11.101Z,9.85
2017-12-08T05:16:13.590Z,9.73
2017-12-08T05:17:16.246Z,12.95
2017-12-08T05:18:18.755Z,10.95
2017-12-08T05:19:22.027Z,10.93
2017-12-08T05:20:24.547Z,9.30
2017-12-08T05:21:27.061Z,11.32
2017-12-08T05:22:30.295Z,10.60
2017-12-08T05:23:33.516Z,8.88
2017-12-08T05:24:35.982Z,11.38
2017-12-08T05:25:38.454Z,9.88
2017-12-08T05:26:40.949Z,8.43
2017-12-08T05:27:43.452Z,10.23
2017-12-08T05:28:45.917Z,8.10
2017-12-08T05:29:48.414Z,13.60
2017-12-08T05:30:50.882Z,11.93
2017-12-08T05:31:53.377Z,10.90
2017-12-08T05:32:55.859Z,10.35
2017-12-08T05:33:59.099Z,11.63
2017-12-08T05:35:02.332Z,8.88
2017-12-08T05:36:04.819Z,8.90
2017-12-08T05:37:07.311Z,9.88
2017-12-08T05:38:10.567Z,10.05
2017-12-08T05:39:13.026Z,9.10
2017-12-08T05:40:15.485Z,13.77
2017-12-08T05:41:18.736Z,11.38
2017-12-08T05:42:21.995Z,11.07
2017-12-08T05:43:24.469Z,12.07
2017-12-08T05:44:27.695Z,10.85
2017-12-08T05:45:30.160Z,9.57
2017-12-08T05:46:33.433Z,9.80
2017-12-08T05:47:35.898Z,10.38
2017-12-08T05:48:38.390Z,10.20
2017-12-08T05:49:40.851Z,9.32
2017-12-08T05:50:44.106Z,10.70
2017-12-08T05:51:46.574Z,9.30
2017-12-08T05:52:49.055Z,12.57
2017-12-08T05:53:51.611Z,15.63
2017-12-08T05:54:54.066Z,11.60
2017-12-08T05:55:56.563Z,8.95
2017-12-08T05:56:59.017Z,9.02
2017-12-08T05:58:01.519Z,14.70
2017-12-08T05:59:03.993Z,9.27
2017-12-08T06:00:06.472Z,10.93
2017-12-08T06:01:08.946Z,10.77
2017-12-08T06:02:11.422Z,10.57
2017-12-08T06:03:13.894Z,8.88
2017-12-08T06:04:16.715Z,15.07
2017-12-08T06:05:19.179Z,10.98
2017-12-08T06:06:22.402Z,10.93
2017-12-08T06:07:24.910Z,16.48
2017-12-08T06:08:27.414Z,8.73
2017-12-08T06:09:29.913Z,12.05
2017-12-08T06:10:32.395Z,13.98
2017-12-08T06:11:34.864Z,9.60
2017-12-08T06:12:37.331Z,12.63
2017-12-08T06:13:39.791Z,17.27
2017-12-08T06:14:43.044Z,8.15
2017-12-08T06:15:46.296Z,12.25
2017-12-08T06:16:49.525Z,9.25
2017-12-08T06:17:52.775Z,17.55
2017-12-08T06:18:56.034Z,11.68
2017-12-08T06:19:58.509Z,12.55
2017-12-08T06:21:01.004Z,9.85
2017-12-08T06:22:03.500Z,14.02
2017-12-08T06:23:05.997Z,11.75
2017-12-08T06:24:08.446Z,17.05
2017-12-08T06:25:10.936Z,11.02
2017-12-08T06:26:13.407Z,13.65
2017-12-08T06:27:20.884Z,15.43
2017-12-08T06:28:23.338Z,23.17
2017-12-08T06:29:26.598Z,11.88
2017-12-08T06:30:29.098Z,14.95
2017-12-08T06:31:31.652Z,10.70
2017-12-08T06:32:34.877Z,13.43
2017-12-08T06:33:38.112Z,10.05
2017-12-08T06:34:40.570Z,10.13
2017-12-08T06:35:43.100Z,14.32
2017-12-08T06:36:45.562Z,13.18
2017-12-08T06:37:48.034Z,11.65
2017-12-08T06:38:51.263Z,10.20
2017-12-08T06:39:54.514Z,9.70
2017-12-08T06:40:57.738Z,8.27
2017-12-08T06:42:00.221Z,11.05
2017-12-08T06:43:02.738Z,17.73
2017-12-08T06:44:05.217Z,8.88
2017-12-08T06:45:07.767Z,17.10
2017-12-08T06:46:10.231Z,11.82
2017-12-08T06:47:12.727Z,12.48
2017-12-08T06:48:15.200Z,12.98
2017-12-08T06:49:17.666Z,12.13
2017-12-08T06:50:20.142Z,11.38
2017-12-08T06:51:22.730Z,11.40
2017-12-08T06:52:25.270Z,11.57
2017-12-08T06:53:27.780Z,17.25
2017-12-08T06:54:30.255Z,13.02
2017-12-08T06:55:32.748Z,9.75
2017-12-08T06:56:35.207Z,11.43
2017-12-08T06:57:37.682Z,11.90
2017-12-08T06:58:40.176Z,14.45
2017-12-08T06:59:43.399Z,11.65
2017-12-08T07:00:45.873Z,12.32
2017-12-08T07:01:48.335Z,10.30
2017-12-08T07:02:54.209Z,11.05
2017-12-08T07:03:56.699Z,10.05
2017-12-08T07:05:00.030Z,11.77
2017-12-08T07:06:02.535Z,14.70
2017-12-08T07:07:05.066Z,11.00
2017-12-08T07:08:07.562Z,13.05
2017-12-08T07:09:10.018Z,11.07
2017-12-08T07:10:13.277Z,11.68
2017-12-08T07:11:15.814Z,8.95
2017-12-08T07:12:19.076Z,17.80
2017-12-08T07:13:21.539Z,12.57
2017-12-08T07:14:24.111Z,20.27
2017-12-08T07:15:27.342Z,15.68
2017-12-08T07:16:30.648Z,19.80
2017-12-08T07:17:33.137Z,14.32
2017-12-08T07:18:35.582Z,15.75
2017-12-08T07:19:38.062Z,18.12
2017-12-08T07:20:41.298Z,9.55
2017-12-08T07:21:45.213Z,16.12
2017-12-08T07:22:47.674Z,16.17
2017-12-08T07:23:50.226Z,8.13
2017-12-08T07:24:52.744Z,10.05
2017-12-08T07:25:55.394Z,10.13
2017-12-08T07:26:57.941Z,12.02
2017-12-08T07:28:00.565Z,14.25
2017-12-08T07:29:03.058Z,13.27
2017-12-08T07:30:05.706Z,22.77
2017-12-08T07:31:08.302Z,15.57
2017-12-08T07:32:11.630Z,11.05
2017-12-08T07:33:14.178Z,9.43
2017-12-08T07:34:17.442Z,14.02
2017-12-08T07:35:19.941Z,18.60
2017-12-08T07:36:23.300Z,11.05
2017-12-08T07:37:25.874Z,16.73
2017-12-08T07:38:28.530Z,14.10
2017-12-08T07:39:30.995Z,12.63
2017-12-08T07:40:33.477Z,15.32
2017-12-08T07:41:35.956Z,14.07
2017-12-08T07:42:38.420Z,17.23
2017-12-08T07:43:40.910Z,11.75
2017-12-08T07:44:43.436Z,15.85
2017-12-08T07:45:45.868Z,19.30
2017-12-08T07:46:48.342Z,17.90
2017-12-08T07:47:51.406Z,12.75
2017-12-08T07:48:53.921Z,9.75
2017-12-08T07:49:57.165Z,18.05
2017-12-08T07:51:00.011Z,12.85
2017-12-08T07:52:02.616Z,16.27
2017-12-08T07:53:06.209Z,14.05
2017-12-08T07:54:08.841Z,21.08
2017-12-08T07:55:11.478Z,12.52
2017-12-08T07:56:14.190Z,11.27
2017-12-08T07:57:16.869Z,12.30
2017-12-08T07:58:19.547Z,13.23
2017-12-08T07:59:22.052Z,15.70
2017-12-08T08:00:26.101Z,16.80
2017-12-08T08:01:28.856Z,15.75
2017-12-08T08:02:31.586Z,9.77
2017-12-08T08:03:34.652Z,15.45
2017-12-08T08:04:37.149Z,17.37
2017-12-08T08:05:39.782Z,19.92
2017-12-08T08:06:42.438Z,11.68
2017-12-08T08:07:45.043Z,12.85
2017-12-08T08:08:47.843Z,11.75
2017-12-08T08:09:51.362Z,11.18
2017-12-08T08:10:54.437Z,18.48
2017-12-08T08:11:56.921Z,18.40
2017-12-08T08:12:59.480Z,14.00
2017-12-08T08:14:01.977Z,15.43
2017-12-08T08:15:04.823Z,30.52
2017-12-08T08:16:07.333Z,17.08
2017-12-08T08:17:11.345Z,14.57
2017-12-08T08:18:13.808Z,15.02
2017-12-08T08:19:16.269Z,11.55
2017-12-08T08:20:19.500Z,11.95
2017-12-08T08:21:22.082Z,12.23
2017-12-08T08:22:24.533Z,14.68
2017-12-08T08:23:27.063Z,11.77
2017-12-08T08:24:29.527Z,10.20
2017-12-08T08:25:32.000Z,14.50
2017-12-08T08:26:34.487Z,14.25
2017-12-08T08:27:36.959Z,16.77
2017-12-08T08:28:39.738Z,16.92
2017-12-08T08:29:42.271Z,12.68
2017-12-08T08:30:44.778Z,14.02
2017-12-08T08:31:48.046Z,17.98
2017-12-08T08:32:50.515Z,12.75
2017-12-08T08:33:52.994Z,15.10
2017-12-08T08:34:55.514Z,16.87
2017-12-08T08:35:58.010Z,11.70
2017-12-08T08:37:01.275Z,13.90
2017-12-08T08:38:03.759Z,16.42
2017-12-08T08:39:07.921Z,12.98
2017-12-08T08:40:11.537Z,15.35
2017-12-08T08:41:14.075Z,9.15
2017-12-08T08:42:16.558Z,13.32
2017-12-08T08:43:19.040Z,7.50
2017-12-08T08:44:21.932Z,8.00
2017-12-08T08:45:24.418Z,11.95
2017-12-08T08:46:26.898Z,10.35
2017-12-08T08:47:29.373Z,14.65
2017-12-08T08:48:31.822Z,17.10
2017-12-08T08:49:34.290Z,9.57
2017-12-08T08:50:36.850Z,12.13
2017-12-08T08:51:40.095Z,13.70
2017-12-08T08:52:43.349Z,10.57
2017-12-08T08:53:46.577Z,13.52
2017-12-08T08:54:49.809Z,18.98
2017-12-08T08:55:52.375Z,14.82
2017-12-08T08:56:54.862Z,15.05
2017-12-08T08:57:57.331Z,12.15
2017-12-08T08:58:59.839Z,10.05
2017-12-08T09:00:02.366Z,15.27
2017-12-08T09:01:04.848Z,21.60
2017-12-08T09:02:07.342Z,20.08
2017-12-08T09:03:09.861Z,22.00
2017-12-08T09:04:12.359Z,21.65
2017-12-08T09:05:15.610Z,14.55
2017-12-08T09:06:18.137Z,12.73
2017-12-08T09:07:20.618Z,17.98
2017-12-08T09:08:23.075Z,17.33
2017-12-08T09:09:26.346Z,9.15
2017-12-08T09:10:28.859Z,16.42
2017-12-08T09:11:31.337Z,13.82
2017-12-08T09:12:33.831Z,9.40
2017-12-08T09:13:36.304Z,13.70
2017-12-08T09:14:40.295Z,12.93
2017-12-08T09:15:43.278Z,15.35
2017-12-08T09:16:45.757Z,13.35
2017-12-08T09:17:48.256Z,10.52
2017-12-08T09:18:51.509Z,19.73
2017-12-08T09:19:54.756Z,15.93
2017-12-08T09:20:57.251Z,10.35
2017-12-08T09:21:59.728Z,15.60
2017-12-08T09:23:02.255Z,13.02
2017-12-08T09:24:04.735Z,13.62
2017-12-08T09:25:07.979Z,10.80
2017-12-08T09:26:11.212Z,13.00
2017-12-08T09:27:13.763Z,13.45
2017-12-08T09:28:17.067Z,11.35
2017-12-08T09:29:19.552Z,10.35
2017-12-08T09:30:22.014Z,11.98
2017-12-08T09:31:24.476Z,13.13
2017-12-08T09:32:27.731Z,18.92
2017-12-08T09:33:30.206Z,16.55
2017-12-08T09:34:32.671Z,20.37
2017-12-08T09:35:35.926Z,15.73
2017-12-08T09:36:38.395Z,11.20
2017-12-08T09:37:42.036Z,13.07
2017-12-08T09:38:44.495Z,18.00
2017-12-08T09:39:47.109Z,19.90
2017-12-08T09:40:49.682Z,12.02
2017-12-08T09:41:53.478Z,14.45
2017-12-08T09:42:55.928Z,11.10
2017-12-08T09:43:58.428Z,11.12
2017-12-08T09:45:00.942Z,16.02
2017-12-08T09:46:03.379Z,14.52
2017-12-08T09:47:05.859Z,12.57
2017-12-08T09:48:08.359Z,12.63
2017-12-08T09:49:11.616Z,12.77
2017-12-08T09:50:14.890Z,18.02
2017-12-08T09:51:17.400Z,14.77
2017-12-08T09:52:19.903Z,12.57
2017-12-08T09:53:23.175Z,10.40
2017-12-08T09:54:25.740Z,17.98
2017-12-08T09:55:28.212Z,15.82
2017-12-08T09:56:30.695Z,12.23
2017-12-08T09:57:33.196Z,11.15
2017-12-08T09:58:35.665Z,11.75
2017-12-08T09:59:38.890Z,16.08
2017-12-08T10:00:41.372Z,17.23
2017-12-08T10:01:43.978Z,10.60
2017-12-08T10:02:47.220Z,14.70
2017-12-08T10:03:49.714Z,16.65
2017-12-08T10:04:53.724Z,12.00
2017-12-08T10:05:56.215Z,17.08
2017-12-08T10:06:59.454Z,15.05
2017-12-08T10:08:02.730Z,13.80
2017-12-08T10:09:05.195Z,8.38
2017-12-08T10:10:07.716Z,15.57
2017-12-08T10:11:10.185Z,14.90
2017-12-08T10:12:13.440Z,11.73
2017-12-08T10:13:16.004Z,13.88
2017-12-08T10:14:18.898Z,12.07
2017-12-08T10:15:22.107Z,9.50
2017-12-08T10:16:24.572Z,9.30
2017-12-08T10:17:27.061Z,10.88
2017-12-08T10:18:29.539Z,16.95
2017-12-08T10:19:32.043Z,18.42
2017-12-08T10:20:34.501Z,10.85
2017-12-08T10:21:36.980Z,6.22
2017-12-08T10:22:39.456Z,11.15
2017-12-08T10:23:41.935Z,13.82
2017-12-08T10:24:45.277Z,19.62
2017-12-08T10:25:48.517Z,10.85
2017-12-08T10:26:51.816Z,16.33
2017-12-08T10:27:54.275Z,12.73
2017-12-08T10:28:57.494Z,16.62
2017-12-08T10:29:59.994Z,7.78
2017-12-08T10:31:02.455Z,9.07
2017-12-08T10:32:05.751Z,9.18
2017-12-08T10:33:08.191Z,7.30
2017-12-08T10:34:10.786Z,13.52
2017-12-08T10:35:13.301Z,13.45
2017-12-08T10:36:15.763Z,15.35
2017-12-08T10:37:18.239Z,5.87
2017-12-08T10:38:21.519Z,11.43
2017-12-08T10:39:23.983Z,8.75
2017-12-08T10:40:26.468Z,8.75
2017-12-08T10:41:28.935Z,11.68
2017-12-08T10:42:31.399Z,11.20
2017-12-08T10:43:33.884Z,16.90
2017-12-08T10:44:36.388Z,12.77
2017-12-08T10:45:39.031Z,7.85
2017-12-08T10:46:41.607Z,12.23
2017-12-08T10:47:44.091Z,9.05
2017-12-08T10:48:46.568Z,11.60
2017-12-08T10:49:49.917Z,22.00
2017-12-08T10:50:52.381Z,9.98
2017-12-08T10:51:54.847Z,5.78
2017-12-08T10:52:57.381Z,9.98
2017-12-08T10:53:59.917Z,8.15
2017-12-08T10:55:02.386Z,3.70
2017-12-08T10:56:04.847Z,9.30
2017-12-08T10:57:07.386Z,6.82
2017-12-08T10:58:09.878Z,10.45
2017-12-08T10:59:13.119Z,5.30
2017-12-08T11:00:16.434Z,10.70
2017-12-08T11:01:18.910Z,10.68
2017-12-08T11:02:21.362Z,5.75
2017-12-08T11:03:23.847Z,10.65
2017-12-08T11:04:27.098Z,10.90
2017-12-08T11:05:29.579Z,5.50
2017-12-08T11:06:32.035Z,4.40
2017-12-08T11:07:35.253Z,4.07
2017-12-08T11:08:37.717Z,9.23
2017-12-08T11:09:40.184Z,14.35
2017-12-08T11:10:42.814Z,6.32
2017-12-08T11:11:45.311Z,6.57
2017-12-08T11:12:47.796Z,6.43
2017-12-08T11:13:51.057Z,4.47
2017-12-08T11:14:54.307Z,8.40
2017-12-08T11:15:57.444Z,5.80
2017-12-08T11:16:59.957Z,7.32
2017-12-08T11:18:03.235Z,9.48
2017-12-08T11:19:05.700Z,5.22
2017-12-08T11:20:08.158Z,7.60
2017-12-08T11:21:11.383Z,4.87
2017-12-08T11:22:14.630Z,6.75
2017-12-08T11:23:17.915Z,8.38
2017-12-08T11:24:20.391Z,6.82
2017-12-08T11:25:23.633Z,8.30
2017-12-08T11:26:26.860Z,6.45
2017-12-08T11:27:29.315Z,5.47
2017-12-08T11:28:32.563Z,4.10
2017-12-08T11:29:35.039Z,7.37
2017-12-08T11:30:37.512Z,4.68
2017-12-08T11:31:39.987Z,10.43
2017-12-08T11:32:42.454Z,5.03
2017-12-08T11:33:45.736Z,7.25
2017-12-08T11:34:48.923Z,6.55
2017-12-08T11:35:52.153Z,8.25
2017-12-08T11:36:54.718Z,3.70
2017-12-08T11:37:57.267Z,6.85
2017-12-08T11:38:59.914Z,6.87
2017-12-08T11:40:02.383Z,7.55
2017-12-08T11:41:05.604Z,6.20
2017-12-08T11:42:08.170Z,5.62
2017-12-08T11:43:10.641Z,5.07
2017-12-08T11:44:13.243Z,10.90
2017-12-08T11:45:15.712Z,7.30
2017-12-08T11:46:19.674Z,7.90
2017-12-08T11:47:22.232Z,8.98
2017-12-08T11:48:24.748Z,6.62
2017-12-08T11:49:27.163Z,8.27
2017-12-08T11:50:30.399Z,8.73
2017-12-08T11:51:33.626Z,3.92
2017-12-08T11:52:36.118Z,7.10
2017-12-08T11:53:38.621Z,10.65
2017-12-08T11:54:41.148Z,6.87
2017-12-08T11:55:43.611Z,9.25
2017-12-08T11:56:46.083Z,6.78
2017-12-08T11:57:49.346Z,7.00
2017-12-08T11:58:51.803Z,5.30
2017-12-08T11:59:54.288Z,7.93
2017-12-08T12:00:56.754Z,7.85
2017-12-08T12:02:00.027Z,10.95
2017-12-08T12:03:03.262Z,6.05
2017-12-08T12:04:06.521Z,8.88
2017-12-08T12:05:09.742Z,6.50
2017-12-08T12:06:12.974Z,9.80
2017-12-08T12:07:15.477Z,10.75
2017-12-08T12:08:17.990Z,7.90
2017-12-08T12:09:20.458Z,9.27
2017-12-08T12:10:23.695Z,7.05
2017-12-08T12:11:26.149Z,8.15
2017-12-08T12:12:29.414Z,3.90
2017-12-08T12:13:31.983Z,9.20
2017-12-08T12:14:35.247Z,3.75
2017-12-08T12:15:38.495Z,7.32
2017-12-08T12:16:41.763Z,9.00
2017-12-08T12:17:44.274Z,8.35
2017-12-08T12:18:47.539Z,8.73
2017-12-08T12:19:50.006Z,6.82
2017-12-08T12:20:54.007Z,10.93
2017-12-08T12:21:56.522Z,7.80
2017-12-08T12:22:59.757Z,7.10
2017-12-08T12:24:02.987Z,5.40
2017-12-08T12:25:05.451Z,9.07
2017-12-08T12:26:07.944Z,11.52
2017-12-08T12:27:10.432Z,8.27
2017-12-08T12:28:12.890Z,9.13
2017-12-08T12:29:17.200Z,9.07
2017-12-08T12:30:19.666Z,9.93
2017-12-08T12:31:22.168Z,13.10
2017-12-08T12:32:24.631Z,9.15
2017-12-08T12:33:27.898Z,9.00
2017-12-08T12:34:30.366Z,6.37
2017-12-08T12:35:32.858Z,6.53
2017-12-08T12:36:35.362Z,7.07
2017-12-08T12:37:38.576Z,10.32
2017-12-08T12:38:41.146Z,5.47
2017-12-08T12:39:43.692Z,6.12
2017-12-08T12:40:46.162Z,8.20
2017-12-08T12:41:49.412Z,8.27
2017-12-08T12:42:51.863Z,7.35
2017-12-08T12:43:55.102Z,9.52
2017-12-08T12:44:57.554Z,5.40
2017-12-08T12:46:00.064Z,6.25
2017-12-08T12:47:02.539Z,13.48
2017-12-08T12:48:05.007Z,7.35
2017-12-08T12:49:07.466Z,8.95
2017-12-08T12:50:09.952Z,9.55
2017-12-08T12:51:12.484Z,7.12
2017-12-08T12:52:14.965Z,10.73
2017-12-08T12:53:17.450Z,7.07
2017-12-08T12:54:19.925Z,4.93
2017-12-08T12:55:22.390Z,14.80
2017-12-08T12:56:24.970Z,7.57
2017-12-08T12:57:27.427Z,5.95
2017-12-08T12:58:29.933Z,6.80
2017-12-08T12:59:33.218Z,7.75
2017-12-08T13:00:35.728Z,14.05
2017-12-08T13:01:38.195Z,8.10
2017-12-08T13:02:40.669Z,4.53
2017-12-08T13:03:43.171Z,7.87
2017-12-08T13:04:45.638Z,8.00
2017-12-08T13:05:48.177Z,5.60
2017-12-08T13:06:50.751Z,7.40
2017-12-08T13:07:53.205Z,3.42
2017-12-08T13:08:55.685Z,8.82
2017-12-08T13:09:58.228Z,14.90
2017-12-08T13:11:00.686Z,4.57
2017-12-08T13:12:03.894Z,4.62
2017-12-08T13:13:06.346Z,4.80
2017-12-08T13:14:08.883Z,5.00
2017-12-08T13:15:11.347Z,10.30
2017-12-08T13:16:13.857Z,5.18
2017-12-08T13:17:16.307Z,6.87
2017-12-08T13:18:18.756Z,8.73
2017-12-08T13:19:22.008Z,5.60
2017-12-08T13:20:24.531Z,6.85
2017-12-08T13:21:27.049Z,6.15
2017-12-08T13:22:30.289Z,10.43
2017-12-08T13:23:33.538Z,17.80
2017-12-08T13:24:36.059Z,8.15
2017-12-08T13:25:39.311Z,8.30
2017-12-08T13:26:41.834Z,11.48
2017-12-08T13:27:44.322Z,7.55
2017-12-08T13:28:46.778Z,6.80
2017-12-08T13:29:50.074Z,6.03
2017-12-08T13:30:52.661Z,11.82
2017-12-08T13:31:55.118Z,6.43
2017-12-08T13:32:57.719Z,7.30
2017-12-08T13:34:00.222Z,10.40
2017-12-08T13:35:03.272Z,8.48
2017-12-08T13:36:06.538Z,12.00